Portada
METAR-TAF:

METAR-TAF

Aeroports :

Gwadar, Pakistan

latitud: 25-13-59N, longitud: 062-19-46E, altitud: 29 m

METAR: manca

Hora: 20:50 (15:50 UTC)

Pronòstic

L'informe es va fer fa 4 hores i 50 minuts, a les 11:00 UTC
Pronòstic vàlid del 25 a les 12 UTC al 26 a les 12 UTC
Vent 7 kt del Sud-Oest amb ràfegues de 17 kt
Visibilitat: 4000 m
Núvols disperses a una alçada de 2500 ft
calitja
Evolucionant progressivament
l' 25 a les 17 UTC al 25 a les 19 UTC
Vent 5 kt del Oest
Visibilitat: 3000 m
Cel ennuvolat a una alçada de 2500 ft
calitja
Temporalment
l' 26 a les 00 UTC al 26 a les 04 UTC
Vent 3 kt amb direcció variable
Visibilitat: 2000 m
Cel ennuvolat a una alçada de 2500 ft
boirina
A partir de les 26 a les 0500 UTC
Vent 10 kt del Sud/Sud-Oest
Visibilitat: 4000 m
Escasses núvols a una alçada de 2500 ft
calitja,

TAF: OPGD 251100Z 2512/2612 23007G17KT 4000 HZ SCT025 BECMG 2517/2519 26005KT 3000 HZ BKN025 TEMPO 2600/2604 VRB03KT 2000 BR BKN025 FM260500 21010KT 4000 HZ FEW025

Observacions i pronòstics meteorològics de més de 4000 aeroports (METAR i TAF).

Les estacions disponibles són els punts grocs i vermells al mapa.

Posi el ratolí al punt desitjat per veure el nom de l'estació.

Feu clic per veure les observacions i els pronòstics meteorològics.

Per canviar el mapa: feu clic els botons verds amb una creu de color negre per apropar; al botó verd amb un guió per allunyar la imatge; o en les fletxes verdes per a mapes adjacents.


METAR-TAF: